Time;durP1;ratioP1;P1;durP2;ratioP2;P2;SDS_P1;SDS_P2;PMS_P1;PMS_P2;Temp;Humidity;BMP_temperature;BMP_pressure;BME280_temperature;BME280_humidity;BME280_pressure;Samples;Min_cycle;Max_cycle;Signal;HPM_P1;HPM_P2
2023/07/25 00:01:40;;;;;;;6.47;5.30;;;;;;;15.09;100.00;100172.41;6155190;23;20039;-67
2023/07/25 00:04:08;;;;;;;5.90;5.53;;;;;;;15.10;100.00;100182.84;6167391;23;20016;-67
2023/07/25 00:06:34;;;;;;;5.88;5.47;;;;;;;15.01;100.00;100172.19;6170700;23;20085;-67
2023/07/25 00:09:00;;;;;;;5.97;5.68;;;;;;;15.03;100.00;100186.09;6166207;23;20095;-66
2023/07/25 00:11:27;;;;;;;5.38;5.07;;;;;;;14.74;100.00;100144.34;6146604;23;20409;-67
2023/07/25 00:13:53;;;;;;;5.70;5.22;;;;;;;15.02;100.00;100176.50;6165522;23;20028;-67
2023/07/25 00:16:20;;;;;;;5.68;5.30;;;;;;;14.85;100.00;100164.63;6159921;23;20081;-67
2023/07/25 00:18:46;;;;;;;6.13;5.63;;;;;;;15.05;100.00;100185.00;6174589;23;20029;-67
2023/07/25 00:21:13;;;;;;;5.50;5.20;;;;;;;14.99;100.00;100176.75;6143221;23;20088;-67
2023/07/25 00:23:39;;;;;;;5.95;5.45;;;;;;;14.66;100.00;100130.91;6168775;23;20021;-67
2023/07/25 00:26:08;;;;;;;5.90;5.60;;;;;;;14.94;100.00;100188.50;6139640;23;20104;-67
2023/07/25 00:28:34;;;;;;;5.38;5.07;;;;;;;14.94;100.00;100187.69;6167749;22;20096;-67
2023/07/25 00:31:07;;;;;;;5.75;5.45;;;;;;;14.67;100.00;100146.63;6158938;23;20056;-66
2023/07/25 00:33:34;;;;;;;5.85;5.50;;;;;;;14.93;100.00;100186.84;6169738;23;20016;-67
2023/07/25 00:36:00;;;;;;;6.20;5.70;;;;;;;14.54;100.00;100140.56;6145541;23;20028;-68
2023/07/25 00:38:26;;;;;;;9.63;5.43;;;;;;;14.81;100.00;100179.03;6168009;22;20016;-67
2023/07/25 00:40:53;;;;;;;5.90;5.60;;;;;;;14.82;100.00;100181.56;6172720;23;20088;-67
2023/07/25 00:43:19;;;;;;;5.72;5.43;;;;;;;14.90;100.00;100194.16;6166908;23;20072;-67
2023/07/25 00:45:46;;;;;;;6.22;5.55;;;;;;;14.48;100.00;100125.22;6138839;23;20045;-67
2023/07/25 00:48:12;;;;;;;6.03;5.55;;;;;;;14.80;100.00;100180.00;6165355;23;20508;-67
2023/07/25 00:50:39;;;;;;;5.85;5.40;;;;;;;14.63;100.00;100152.25;6167076;23;20100;-66
2023/07/25 00:53:06;;;;;;;5.60;5.30;;;;;;;14.88;100.00;100185.53;6170930;23;20016;-66
2023/07/25 00:55:33;;;;;;;5.97;5.57;;;;;;;14.82;100.00;100181.56;6171316;23;20027;-67
2023/07/25 00:58:00;;;;;;;6.03;5.40;;;;;;;14.79;100.00;100184.41;6165795;23;20439;-67
2023/07/25 01:00:26;;;;;;;6.00;5.60;;;;;;;14.81;100.00;100190.44;6173166;23;20106;-67
2023/07/25 01:02:53;;;;;;;5.72;5.43;;;;;;;14.66;100.00;100168.69;6139948;23;20122;-67
2023/07/25 01:05:20;;;;;;;5.60;5.30;;;;;;;14.73;100.00;100188.41;6171686;23;20072;-68
2023/07/25 01:07:46;;;;;;;5.70;5.40;;;;;;;14.74;100.00;100194.53;6134094;23;20077;-68
2023/07/25 01:10:14;;;;;;;5.93;5.47;;;;;;;14.61;100.00;100189.34;6172982;23;20028;-68
2023/07/25 01:12:41;;;;;;;7.47;5.80;;;;;;;14.62;100.00;100184.91;6142034;23;20053;-68
2023/07/25 01:15:08;;;;;;;6.28;5.57;;;;;;;14.56;100.00;100186.22;6170988;23;20035;-69
2023/07/25 01:17:34;;;;;;;7.55;5.43;;;;;;;14.53;100.00;100189.91;6158219;23;20084;-67
2023/07/25 01:20:01;;;;;;;5.72;5.22;;;;;;;14.35;100.00;100165.78;6139899;23;20583;-67
2023/07/25 01:22:32;;;;;;;6.47;5.50;;;;;;;14.45;100.00;100187.03;6168992;23;20020;-69
2023/07/25 01:24:59;;;;;;;5.60;5.30;;;;;;;14.14;100.00;100141.84;6175392;23;20028;-67
2023/07/25 01:27:26;;;;;;;5.93;5.55;;;;;;;12.97;100.00;99941.47;6144634;23;20029;-67
2023/07/25 01:29:52;;;;;;;6.00;5.50;;;;;;;14.28;100.00;100148.69;6192379;23;20025;-69
2023/07/25 01:32:18;;;;;;;5.78;5.45;;;;;;;14.11;100.00;100107.78;6150348;23;20024;-68
2023/07/25 01:34:45;;;;;;;6.35;5.22;;;;;;;14.40;100.00;100154.00;6153091;23;20021;-67
2023/07/25 01:37:11;;;;;;;5.65;5.20;;;;;;;13.32;100.00;99995.97;6143891;23;20025;-68
2023/07/25 01:39:38;;;;;;;5.65;5.35;;;;;;;14.34;100.00;100163.25;6173747;23;20028;-68
2023/07/25 01:42:04;;;;;;;8.20;5.53;;;;;;;14.30;100.00;100152.06;6143937;23;20031;-67
2023/07/25 01:44:31;;;;;;;6.05;5.43;;;;;;;14.09;100.00;100122.03;6172226;23;20019;-68
2023/07/25 01:46:57;;;;;;;5.50;5.20;;;;;;;13.92;100.00;100107.50;6169763;23;20036;-68
2023/07/25 01:49:23;;;;;;;5.88;5.40;;;;;;;14.23;100.00;100150.88;6189198;23;20033;-67
2023/07/25 01:51:50;;;;;;;5.75;5.40;;;;;;;13.92;100.00;100110.97;6137838;23;20036;-67
2023/07/25 01:54:16;;;;;;;5.70;5.40;;;;;;;14.22;100.00;100158.91;6174890;23;20026;-68
2023/07/25 01:56:43;;;;;;;5.75;5.35;;;;;;;14.14;100.00;100157.66;6189936;23;20028;-68
2023/07/25 01:59:10;;;;;;;5.80;5.50;;;;;;;14.09;100.00;100151.91;6145101;23;20129;-67
2023/07/25 02:01:37;;;;;;;6.15;5.55;;;;;;;14.01;100.00;100154.28;6170240;23;20059;-68
2023/07/25 02:04:03;;;;;;;5.50;5.20;;;;;;;13.96;100.00;100159.91;6140369;23;20165;-68
2023/07/25 02:06:30;;;;;;;5.80;5.45;;;;;;;13.54;100.00;100101.47;6173998;23;20664;-68
2023/07/25 02:08:56;;;;;;;5.85;5.55;;;;;;;13.87;100.00;100146.56;6172962;23;20043;-68
2023/07/25 02:11:22;;;;;;;5.60;5.10;;;;;;;13.78;100.00;100142.81;6171750;23;20025;-68
2023/07/25 02:13:49;;;;;;;5.65;5.35;;;;;;;13.37;100.00;100083.47;6142971;23;20048;-68
2023/07/25 02:16:15;;;;;;;5.38;5.07;;;;;;;13.62;100.00;100132.56;6192089;23;20881;-68
2023/07/25 02:18:42;;;;;;;5.38;5.07;;;;;;;13.49;100.00;100130.00;6168245;23;20289;-68
2023/07/25 02:21:08;;;;;;;5.75;5.38;;;;;;;13.49;100.00;100143.19;6140159;23;20036;-67
2023/07/25 02:23:34;;;;;;;5.90;5.50;;;;;;;12.89;100.00;100063.19;6175632;23;20083;-67
2023/07/25 02:26:01;;;;;;;5.47;5.18;;;;;;;12.87;100.00;100072.13;6141162;23;20115;-67
2023/07/25 02:28:27;;;;;;;5.60;5.20;;;;;;;13.37;100.00;100149.34;6171075;23;20021;-67
2023/07/25 02:30:53;;;;;;;6.90;6.25;;;;;;;13.38;100.00;100150.19;6167669;23;20029;-68
2023/07/25 02:33:20;;;;;;;5.95;5.43;;;;;;;13.39;100.00;100157.13;6150567;23;20054;-67
2023/07/25 02:35:46;;;;;;;6.28;5.53;;;;;;;13.18;100.00;100129.53;6164165;23;20031;-68
2023/07/25 02:38:13;;;;;;;5.93;5.60;;;;;;;13.24;100.00;100125.63;6142519;23;20513;-67
2023/07/25 02:40:39;;;;;;;5.68;5.18;;;;;;;13.47;100.00;100160.91;6172813;23;20169;-68
2023/07/25 02:43:07;;;;;;;5.95;5.55;;;;;;;13.12;100.00;100101.00;6167648;23;20045;-67
2023/07/25 02:45:34;;;;;;;6.40;5.75;;;;;;;13.32;100.00;100139.13;6174518;23;20025;-67
2023/07/25 02:48:00;;;;;;;10.30;5.97;;;;;;;13.27;100.00;100127.19;6193262;23;20617;-67
2023/07/25 02:50:27;;;;;;;5.57;5.28;;;;;;;13.12;100.00;100111.53;6174899;23;20395;-67
2023/07/25 02:52:54;;;;;;;5.93;5.53;;;;;;;13.32;100.00;100147.03;6166302;23;20036;-69
2023/07/25 02:55:20;;;;;;;6.20;5.55;;;;;;;13.48;100.00;100170.47;6139543;23;20099;-68
2023/07/25 02:57:47;;;;;;;5.82;5.43;;;;;;;13.45;100.00;100168.09;6169494;23;20055;-68
2023/07/25 03:00:14;;;;;;;5.72;5.43;;;;;;;12.56;100.00;100029.56;6162339;23;20400;-67
2023/07/25 03:02:40;;;;;;;5.38;5.07;;;;;;;13.38;100.00;100163.38;6176010;23;20060;-67
2023/07/25 03:05:08;;;;;;;5.70;5.30;;;;;;;13.30;100.00;100159.47;6142462;23;20073;-67
2023/07/25 03:07:34;;;;;;;5.45;5.05;;;;;;;13.08;100.00;100135.59;6166204;23;20593;-68
2023/07/25 03:10:01;;;;;;;6.20;5.70;;;;;;;13.15;100.00;100155.31;6145313;23;20024;-67
2023/07/25 03:12:27;;;;;;;9.05;5.63;;;;;;;13.00;100.00;100141.41;6170034;23;20036;-67
2023/07/25 03:14:53;;;;;;;5.78;5.43;;;;;;;13.07;100.00;100153.22;6171883;23;20085;-68
2023/07/25 03:17:20;;;;;;;6.20;5.80;;;;;;;13.02;100.00;100165.00;6147897;23;20381;-67
2023/07/25 03:19:46;;;;;;;5.72;5.22;;;;;;;12.59;100.00;100105.69;6170926;23;20185;-67
2023/07/25 03:22:12;;;;;;;6.20;5.70;;;;;;;12.53;100.00;100106.97;6169085;23;20029;-67
2023/07/25 03:24:39;;;;;;;5.82;5.43;;;;;;;12.87;100.00;100166.91;6148701;23;20029;-67
2023/07/25 03:27:06;;;;;;;5.95;5.38;;;;;;;12.54;100.00;100121.78;6168138;23;20040;-68
2023/07/25 03:29:32;;;;;;;6.13;5.63;;;;;;;11.83;100.00;100020.56;6168884;23;20749;-67
2023/07/25 03:31:59;;;;;;;5.65;5.35;;;;;;;12.74;100.00;100162.53;6168355;23;20043;-67
2023/07/25 03:34:25;;;;;;;5.80;5.40;;;;;;;12.20;100.00;100083.81;6152277;23;20026;-67
2023/07/25 03:36:52;;;;;;;7.45;5.70;;;;;;;12.51;100.00;100134.34;6164446;23;20467;-67
2023/07/25 03:39:19;;;;;;;5.90;5.50;;;;;;;12.67;100.00;100156.00;6143366;23;20021;-67
2023/07/25 03:41:46;;;;;;;5.70;5.30;;;;;;;12.66;100.00;100154.31;6154943;23;20104;-67
2023/07/25 03:44:22;;;;;;;6.50;6.00;;;;;;;12.64;100.00;100150.94;6174372;22;20443;-69
2023/07/25 03:46:48;;;;;;;5.43;5.13;;;;;;;12.62;100.00;100152.00;6138021;23;20471;-67
2023/07/25 03:49:15;;;;;;;6.30;5.70;;;;;;;12.35;100.00;100121.41;6171020;23;20016;-66
2023/07/25 03:51:42;;;;;;;6.75;6.00;;;;;;;12.58;100.00;100167.16;6153059;23;20032;-67
2023/07/25 03:54:08;;;;;;;5.95;5.55;;;;;;;12.58;100.00;100154.00;6140962;23;20015;-67
2023/07/25 03:56:35;;;;;;;8.15;5.80;;;;;;;12.60;100.00;100160.00;6170315;23;20079;-67
2023/07/25 03:59:01;;;;;;;5.95;5.45;;;;;;;12.17;100.00;100090.13;6154354;23;20140;-68
2023/07/25 04:01:29;;;;;;;6.20;5.70;;;;;;;12.23;100.00;100107.28;6169862;23;20042;-67
2023/07/25 04:03:57;;;;;;;5.95;5.63;;;;;;;12.26;100.00;100107.06;6151014;23;20020;-69
2023/07/25 04:06:23;;;;;;;6.60;5.10;;;;;;;12.61;100.00;100155.56;6170410;23;20012;-67
2023/07/25 04:08:49;;;;;;;5.80;5.38;;;;;;;12.08;100.00;100069.72;6140258;23;20029;-67
2023/07/25 04:11:16;;;;;;;6.03;5.68;;;;;;;12.61;100.00;100151.19;6163332;23;20017;-69
2023/07/25 04:13:42;;;;;;;6.40;5.90;;;;;;;12.23;100.00;100096.78;6168323;23;20040;-67
2023/07/25 04:16:08;;;;;;;5.70;5.40;;;;;;;12.65;100.00;100160.53;6140990;23;20025;-67
2023/07/25 04:18:35;;;;;;;6.15;5.75;;;;;;;12.62;100.00;100152.84;6171531;23;20045;-67
2023/07/25 04:21:01;;;;;;;6.40;6.00;;;;;;;12.64;100.00;100177.28;6167561;23;20044;-69
2023/07/25 04:23:28;;;;;;;5.65;5.25;;;;;;;12.64;100.00;100164.13;6144593;23;20699;-67
2023/07/25 04:25:54;;;;;;;6.10;5.70;;;;;;;12.70;100.00;100161.06;6166004;23;20428;-67
2023/07/25 04:28:20;;;;;;;6.28;5.78;;;;;;;12.40;100.00;100114.00;6149850;23;20451;-67
2023/07/25 04:30:47;;;;;;;6.05;5.65;;;;;;;12.81;100.00;100162.09;6167321;23;20080;-67
2023/07/25 04:33:13;;;;;;;6.25;5.70;;;;;;;12.69;100.00;100154.13;6171936;23;20044;-67
2023/07/25 04:35:42;;;;;;;7.20;5.90;;;;;;;13.03;100.00;100162.28;6138464;23;20047;-70
2023/07/25 04:38:08;;;;;;;6.10;5.70;;;;;;;12.82;100.00;100095.31;6173900;23;20328;-67
2023/07/25 04:40:34;;;;;;;6.50;6.00;;;;;;;13.37;100.00;100159.91;6142791;23;20557;-68
2023/07/25 04:43:01;;;;;;;6.32;5.82;;;;;;;13.42;100.00;100135.84;6163837;23;20028;-66
2023/07/25 04:45:27;;;;;;;5.75;5.35;;;;;;;13.32;100.00;100075.03;6139789;23;20037;-69
2023/07/25 04:47:54;;;;;;;5.97;5.60;;;;;;;14.32;100.00;100157.22;6172106;23;20400;-67
2023/07/25 04:50:21;;;;;;;6.45;6.00;;;;;;;14.00;100.00;100040.97;6165974;23;20032;-67
2023/07/25 04:52:47;;;;;;;6.28;5.88;;;;;;;14.98;100.00;100111.66;6171837;23;20024;-67
2023/07/25 04:55:13;;;;;;;6.13;5.78;;;;;;;15.19;100.00;100058.84;6162338;23;20024;-68
2023/07/25 04:57:40;;;;;;;6.40;6.00;;;;;;;14.94;100.00;100008.84;6172482;23;20587;-68
2023/07/25 05:00:07;;;;;;;6.43;5.93;;;;;;;15.16;100.00;100039.63;6140366;23;20119;-67
2023/07/25 05:02:33;;;;;;;6.13;5.72;;;;;;;15.66;100.00;100054.09;6171803;23;20644;-68
2023/07/25 05:05:00;;;;;;;6.35;5.75;;;;;;;16.30;100.00;100042.50;6189467;23;20032;-69
2023/07/25 05:07:26;;;;;;;7.07;6.57;;;;;;;16.67;100.00;100008.31;6146498;23;20017;-67
2023/07/25 05:09:52;;;;;;;6.60;6.00;;;;;;;16.82;100.00;99957.59;6161367;23;20073;-69
2023/07/25 05:12:19;;;;;;;7.72;6.00;;;;;;;17.31;100.00;99927.44;6146904;23;20084;-67
2023/07/25 05:14:45;;;;;;;6.18;5.72;;;;;;;17.71;99.00;99891.84;6163633;23;20203;-67
2023/07/25 05:17:12;;;;;;;6.88;6.22;;;;;;;18.50;94.45;99881.63;6138838;23;20043;-68
2023/07/25 05:19:40;;;;;;;6.07;5.68;;;;;;;19.56;89.47;99883.47;6168436;23;20028;-67
2023/07/25 05:22:07;;;;;;;6.60;6.18;;;;;;;19.86;84.10;99783.63;6147822;23;20797;-68
2023/07/25 05:24:33;;;;;;;6.50;6.00;;;;;;;20.22;78.44;99719.41;6169561;23;20594;-67
2023/07/25 05:27:00;;;;;;;6.82;6.25;;;;;;;20.42;73.45;99685.25;6144885;23;20052;-68
2023/07/25 05:29:26;;;;;;;8.82;6.80;;;;;;;20.13;71.92;99663.47;6161195;23;20766;-68
2023/07/25 05:31:53;;;;;;;6.70;6.30;;;;;;;19.50;75.61;99723.44;6137441;23;20024;-67
2023/07/25 05:34:19;;;;;;;6.57;6.07;;;;;;;19.92;73.32;99679.97;6164121;23;20031;-68
2023/07/25 05:36:45;;;;;;;7.07;6.47;;;;;;;19.75;71.50;99600.25;6137414;23;20089;-67
2023/07/25 05:39:12;;;;;;;11.43;6.75;;;;;;;18.85;75.27;99668.16;6168791;23;20755;-67
2023/07/25 05:41:39;;;;;;;6.70;6.30;;;;;;;18.30;79.50;99746.34;6168819;23;20067;-68
2023/07/25 05:44:06;;;;;;;7.43;6.43;;;;;;;17.55;82.21;99714.72;6164360;23;20017;-68
2023/07/25 05:46:32;;;;;;;6.80;6.30;;;;;;;17.11;84.33;99738.38;6138603;23;20333;-68
2023/07/25 05:48:59;;;;;;;6.55;6.07;;;;;;;17.09;86.35;99806.63;6146439;23;20080;-68
2023/07/25 05:51:25;;;;;;;6.95;6.45;;;;;;;17.07;89.25;99869.56;6168721;23;20509;-67
2023/07/25 05:53:51;;;;;;;7.28;6.68;;;;;;;16.49;94.04;99883.63;6167338;23;20091;-67
2023/07/25 05:56:18;;;;;;;6.95;6.38;;;;;;;16.40;96.35;99923.34;6145876;23;20013;-68
2023/07/25 05:58:44;;;;;;;7.55;6.95;;;;;;;16.38;99.09;99957.06;6143846;23;20131;-67
2023/07/25 06:01:12;;;;;;;6.60;6.10;;;;;;;16.24;100.00;99964.44;6159642;23;20028;-67
2023/07/25 06:03:38;;;;;;;6.85;6.25;;;;;;;16.64;100.00;99994.53;6140230;23;20025;-67
2023/07/25 06:06:05;;;;;;;7.90;7.13;;;;;;;16.79;99.98;99990.47;6158201;23;20024;-68
2023/07/25 06:08:31;;;;;;;6.65;6.15;;;;;;;17.05;98.12;99987.31;6137955;23;21028;-67
2023/07/25 06:10:58;;;;;;;7.03;6.47;;;;;;;16.84;96.19;99931.78;6172109;23;20029;-67
2023/07/25 06:13:24;;;;;;;7.20;6.60;;;;;;;16.91;95.38;99935.56;6168109;23;20024;-67
2023/07/25 06:15:51;;;;;;;7.00;6.40;;;;;;;17.04;95.14;99970.59;6143272;23;20040;-67
2023/07/25 06:18:18;;;;;;;10.63;6.80;;;;;;;16.42;95.09;99892.28;6168325;23;20012;-67
2023/07/25 06:20:46;;;;;;;6.53;6.03;;;;;;;17.12;95.46;99978.69;6170462;23;20032;-68
2023/07/25 06:23:12;;;;;;;6.78;6.18;;;;;;;17.05;93.80;99932.50;6171127;23;20044;-67
2023/07/25 06:25:39;;;;;;;7.30;6.80;;;;;;;16.72;92.73;99878.91;6143791;23;20020;-67
2023/07/25 06:28:06;;;;;;;7.30;6.53;;;;;;;17.12;90.92;99928.31;6171250;23;20091;-67
2023/07/25 06:30:32;;;;;;;8.40;6.13;;;;;;;17.35;89.45;99922.69;6172420;23;20047;-67
2023/07/25 06:32:59;;;;;;;6.85;6.35;;;;;;;17.31;87.24;99862.94;6168434;23;20024;-67
2023/07/25 06:35:25;;;;;;;7.03;6.40;;;;;;;17.01;85.38;99795.91;6142202;23;20044;-67
2023/07/25 06:37:51;;;;;;;6.72;6.20;;;;;;;17.27;85.73;99856.25;6171046;23;20026;-68
2023/07/25 06:40:18;;;;;;;8.90;6.43;;;;;;;16.94;85.25;99845.19;6154316;23;20104;-68
2023/07/25 06:42:44;;;;;;;6.80;6.30;;;;;;;16.83;87.26;99882.44;6146795;23;20024;-68
2023/07/25 06:45:11;;;;;;;6.68;6.03;;;;;;;16.53;88.30;99853.25;6171169;23;20097;-68
2023/07/25 06:47:37;;;;;;;6.75;6.25;;;;;;;16.72;89.11;99901.94;6173279;23;20040;-69
2023/07/25 06:50:04;;;;;;;5.97;5.68;;;;;;;16.22;89.25;99822.59;6151954;23;20521;-68
2023/07/25 06:52:31;;;;;;;6.43;6.03;;;;;;;16.63;90.47;99911.53;6172292;23;20096;-67
2023/07/25 06:54:57;;;;;;;7.18;6.68;;;;;;;16.50;90.32;99903.03;6147359;23;20033;-68
2023/07/25 06:57:24;;;;;;;7.60;7.00;;;;;;;16.36;90.70;99909.56;6168510;23;20016;-68
2023/07/25 06:59:52;;;;;;;7.00;6.38;;;;;;;16.10;91.78;99896.81;6148220;23;20041;-68
2023/07/25 07:02:19;;;;;;;7.63;7.03;;;;;;;16.50;92.32;99946.25;6170668;23;20023;-67
2023/07/25 07:04:45;;;;;;;7.30;6.68;;;;;;;15.33;92.80;99784.47;6156443;23;20833;-68
2023/07/25 07:07:12;;;;;;;8.77;7.97;;;;;;;16.34;90.53;99922.94;6170687;23;20089;-68
2023/07/25 07:09:38;;;;;;;10.00;8.15;;;;;;;16.69;89.40;99926.03;6142946;23;20021;-67
2023/07/25 07:12:05;;;;;;;8.52;7.72;;;;;;;16.58;87.25;99852.84;6172203;23;20089;-68
2023/07/25 07:14:31;;;;;;;10.15;8.13;;;;;;;16.47;85.97;99837.09;6152702;23;20389;-68
2023/07/25 07:16:58;;;;;;;8.32;7.47;;;;;;;16.49;85.98;99869.56;6168484;23;20135;-67
2023/07/25 07:19:24;;;;;;;8.40;7.57;;;;;;;16.96;85.75;99864.44;6152299;23;20024;-67
2023/07/25 07:21:51;;;;;;;11.10;7.65;;;;;;;17.25;82.13;99831.72;6171679;23;20032;-67
2023/07/25 07:24:17;;;;;;;10.90;7.70;;;;;;;17.24;80.58;99785.81;6146932;23;20046;-67
2023/07/25 07:26:44;;;;;;;9.27;7.25;;;;;;;17.36;78.74;99765.25;6195734;23;20604;-67
2023/07/25 07:29:11;;;;;;;10.70;8.85;;;;;;;16.67;77.19;99671.00;6153711;23;20471;-67
2023/07/25 07:31:38;;;;;;;12.23;9.27;;;;;;;16.71;78.42;99755.34;6169892;23;20123;-68
2023/07/25 07:34:15;;;;;;;9.60;8.55;;;;;;;16.81;78.00;99762.47;6147513;23;20033;-67
2023/07/25 07:36:42;;;;;;;11.70;9.27;;;;;;;16.94;78.75;99789.53;6147095;23;20161;-68
2023/07/25 07:39:10;;;;;;;10.43;8.90;;;;;;;16.81;78.29;99765.09;6168088;23;20108;-69
2023/07/25 07:41:36;;;;;;;9.77;8.82;;;;;;;17.31;79.42;99823.16;6150727;23;20098;-67
2023/07/25 07:44:03;;;;;;;12.25;10.27;;;;;;;17.18;78.76;99785.53;6151161;23;20126;-67
2023/07/25 07:46:32;;;;;;;12.95;10.57;;;;;;;17.02;77.56;99765.78;6136983;23;20035;-67
2023/07/25 07:49:00;;;;;;;14.57;10.82;;;;;;;17.07;77.28;99766.16;6167037;23;20021;-68
2023/07/25 07:51:26;;;;;;;11.27;9.20;;;;;;;17.03;75.45;99700.34;6168205;23;20053;-68
2023/07/25 07:53:53;;;;;;;14.73;9.75;;;;;;;17.20;73.88;99699.56;6197654;23;20024;-68
2023/07/25 07:56:19;;;;;;;11.88;10.50;;;;;;;16.93;74.16;99687.13;6164149;23;20728;-68
2023/07/25 07:58:46;;;;;;;10.38;9.05;;;;;;;17.14;75.15;99740.75;6169930;23;20411;-67
2023/07/25 08:01:18;;;;;;;16.15;9.73;;;;;;;16.74;75.43;99680.06;6154343;23;20025;-67
2023/07/25 08:03:45;;;;;;;12.60;10.00;;;;;;;17.19;74.68;99729.72;6137025;23;20727;-69
2023/07/25 08:06:11;;;;;;;12.02;8.80;;;;;;;16.76;75.99;99696.66;6164589;23;20024;-69
2023/07/25 08:08:38;;;;;;;11.95;8.90;;;;;;;17.39;75.07;99751.66;6139180;23;20410;-69
2023/07/25 08:11:04;;;;;;;15.30;8.30;;;;;;;17.32;74.35;99718.78;6171876;23;20039;-69
2023/07/25 08:13:31;;;;;;;12.18;8.98;;;;;;;17.38;74.69;99718.19;6140234;23;20048;-69
2023/07/25 08:15:57;;;;;;;11.18;8.23;;;;;;;17.96;73.65;99770.09;6173563;23;20028;-70
2023/07/25 08:18:24;;;;;;;9.32;8.43;;;;;;;17.83;70.51;99645.69;6161804;23;20009;-69
2023/07/25 08:20:58;;;;;;;11.15;8.25;;;;;;;17.87;69.70;99617.84;6146273;23;20104;-69
2023/07/25 08:23:25;;;;;;;10.02;8.32;;;;;;;17.69;69.32;99630.28;6171623;23;20114;-69
2023/07/25 08:25:54;;;;;;;9.60;8.05;;;;;;;17.35;68.56;99570.78;6148517;23;20129;-68
2023/07/25 08:28:21;;;;;;;10.90;7.80;;;;;;;17.45;68.61;99597.22;6165072;23;21429;-69
2023/07/25 08:30:47;;;;;;;7.95;7.32;;;;;;;17.33;67.35;99532.97;6169481;23;20020;-69
2023/07/25 08:33:19;;;;;;;7.90;7.30;;;;;;;18.04;66.59;99599.38;6138217;23;20016;-69
2023/07/25 08:35:47;;;;;;;9.23;6.95;;;;;;;18.20;64.87;99542.91;6170449;23;20020;-69
2023/07/25 08:38:13;;;;;;;7.68;7.07;;;;;;;18.08;64.27;99527.25;6167095;23;20867;-69
2023/07/25 08:40:41;;;;;;;9.07;6.95;;;;;;;18.11;65.44;99588.00;6167962;23;20655;-69
2023/07/25 08:43:11;;;;;;;7.65;7.10;;;;;;;17.90;64.47;99515.84;6135901;23;20020;-67
2023/07/25 08:45:41;;;;;;;7.75;7.00;;;;;;;18.05;66.61;99638.25;6169872;23;20057;-68
2023/07/25 08:48:11;;;;;;;6.90;6.45;;;;;;;17.77;65.44;99569.31;6138008;23;20017;-68
2023/07/25 08:50:40;;;;;;;7.20;6.60;;;;;;;18.07;64.54;99585.81;6171028;23;20028;-68
2023/07/25 08:53:11;;;;;;;9.85;7.03;;;;;;;17.88;65.00;99589.47;6144689;23;20027;-67
2023/07/25 08:55:38;;;;;;;7.03;6.57;;;;;;;17.94;66.29;99632.19;6140873;23;20031;-68
2023/07/25 08:58:05;;;;;;;10.52;6.78;;;;;;;17.91;66.76;99655.56;6163257;23;20036;-68
2023/07/25 09:00:33;;;;;;;7.97;6.40;;;;;;;17.44;66.39;99614.16;6142582;23;20529;-68
2023/07/25 09:03:00;;;;;;;7.45;6.85;;;;;;;17.33;64.44;99526.84;6171171;23;20035;-67
2023/07/25 09:05:28;;;;;;;7.20;6.70;;;;;;;17.69;65.44;99625.81;6151421;23;20015;-68
2023/07/25 09:07:59;;;;;;;7.80;7.00;;;;;;;17.52;62.11;99459.53;6168734;23;20024;-68
2023/07/25 09:10:27;;;;;;;6.50;6.10;;;;;;;17.60;61.11;99437.50;6143603;23;20167;-68
2023/07/25 09:12:54;;;;;;;6.35;5.75;;;;;;;17.59;62.34;99496.88;6163959;23;20021;-68
2023/07/25 09:15:21;;;;;;;5.88;5.57;;;;;;;17.84;64.29;99633.25;6143154;23;20089;-68
2023/07/25 09:17:52;;;;;;;6.10;5.70;;;;;;;18.51;64.23;99702.66;6157553;23;20516;-67
2023/07/25 09:20:19;;;;;;;8.65;5.75;;;;;;;18.39;62.82;99613.56;6143849;23;20072;-67
2023/07/25 09:22:47;;;;;;;6.35;5.85;;;;;;;18.39;61.71;99587.84;6133577;23;20606;-67
2023/07/25 09:25:15;;;;;;;5.82;5.50;;;;;;;18.01;62.68;99583.78;6169619;23;20383;-68
2023/07/25 09:27:53;;;;;;;5.90;5.60;;;;;;;17.88;63.66;99626.66;6139551;23;20024;-68
2023/07/25 09:30:19;;;;;;;5.80;5.30;;;;;;;17.85;63.53;99611.88;6166270;23;20013;-69
2023/07/25 09:32:47;;;;;;;6.25;5.63;;;;;;;18.05;64.11;99673.59;6139305;23;20529;-68
2023/07/25 09:35:13;;;;;;;6.20;5.80;;;;;;;18.16;63.82;99672.50;6168881;23;20738;-68
2023/07/25 09:37:39;;;;;;;8.55;6.38;;;;;;;18.12;64.32;99703.88;6130649;23;21575;-68
2023/07/25 09:40:09;;;;;;;5.75;5.45;;;;;;;18.34;63.71;99691.91;6168477;23;20041;-68
2023/07/25 09:42:40;;;;;;;6.10;5.70;;;;;;;18.05;62.22;99619.66;6138634;23;20053;-68
2023/07/25 09:45:11;;;;;;;6.25;5.90;;;;;;;18.16;63.17;99661.06;6164898;23;20520;-68
2023/07/25 09:47:38;;;;;;;6.07;5.78;;;;;;;18.04;61.75;99602.03;6175792;23;20617;-68
2023/07/25 09:50:05;;;;;;;6.30;5.80;;;;;;;18.05;62.20;99625.78;6175007;22;20042;-68
2023/07/25 09:52:40;;;;;;;6.13;5.70;;;;;;;18.39;60.86;99619.72;6150979;23;20056;-70
2023/07/25 09:55:07;;;;;;;6.20;5.70;;;;;;;18.52;60.83;99612.16;6193188;23;20021;-68
2023/07/25 09:57:37;;;;;;;5.75;5.30;;;;;;;18.76;58.34;99557.44;6147064;23;20652;-67
2023/07/25 10:00:07;;;;;;;6.70;6.20;;;;;;;18.65;57.87;99502.75;6144576;23;20640;-68
2023/07/25 10:02:34;;;;;;;6.60;6.00;;;;;;;18.79;56.88;99487.19;6170896;23;20028;-68
2023/07/25 10:05:01;;;;;;;5.72;5.35;;;;;;;18.56;58.06;99521.50;6148799;23;20035;-67
2023/07/25 10:07:32;;;;;;;6.28;5.88;;;;;;;18.87;57.81;99601.53;6167170;23;20033;-67
2023/07/25 10:09:59;;;;;;;8.77;5.63;;;;;;;19.54;55.51;99548.28;6152693;23;20538;-68
2023/07/25 10:12:25;;;;;;;6.53;5.57;;;;;;;20.41;55.77;99648.97;6193203;23;20060;-67
2023/07/25 10:14:52;;;;;;;6.35;5.90;;;;;;;20.77;53.94;99547.22;6146660;23;20033;-67
2023/07/25 10:17:19;;;;;;;6.18;5.78;;;;;;;20.89;51.90;99490.66;6169601;23;20013;-67
2023/07/25 10:19:52;;;;;;;5.78;5.45;;;;;;;20.37;49.70;99266.59;6159576;23;20542;-67
2023/07/25 10:22:34;;;;;;;5.90;5.60;;;;;;;19.66;52.13;99389.91;6170401;23;20021;-67
2023/07/25 10:25:01;;;;;;;6.13;5.70;;;;;;;19.02;52.69;99318.06;6142989;23;20077;-67
2023/07/25 10:27:28;;;;;;;5.90;5.55;;;;;;;19.59;52.12;99396.94;6149192;23;20037;-69
2023/07/25 10:30:00;;;;;;;5.75;5.45;;;;;;;19.77;52.53;99450.00;6173711;23;20020;-68
2023/07/25 10:32:43;;;;;;;6.07;5.68;;;;;;;19.75;51.86;99413.91;6168776;23;20113;-68
2023/07/25 10:35:09;;;;;;;5.90;5.50;;;;;;;20.32;50.74;99451.78;6150907;23;20044;-68
2023/07/25 10:37:44;;;;;;;6.32;5.57;;;;;;;21.10;47.80;99387.81;6172033;23;20080;-68
2023/07/25 10:40:22;;;;;;;5.80;5.50;;;;;;;20.31;47.27;99207.69;6145583;23;20025;-68
2023/07/25 10:42:51;;;;;;;5.68;5.38;;;;;;;20.44;48.23;99321.66;6170136;23;20037;-67
2023/07/25 10:45:21;;;;;;;5.80;5.40;;;;;;;21.30;49.53;99526.91;6139980;23;20081;-68
2023/07/25 10:47:49;;;;;;;5.90;5.50;;;;;;;21.67;47.03;99442.53;6164710;23;20032;-68
2023/07/25 10:50:18;;;;;;;6.00;5.60;;;;;;;21.76;45.58;99299.06;6141589;23;20036;-68
2023/07/25 10:52:45;;;;;;;6.20;5.70;;;;;;;21.17;46.20;99295.38;6162719;23;20531;-68
2023/07/25 10:55:12;;;;;;;5.75;5.45;;;;;;;21.23;46.98;99384.56;6168187;23;20032;-69
2023/07/25 10:57:38;;;;;;;6.65;6.07;;;;;;;21.21;45.80;99288.66;6165978;23;20055;-68
2023/07/25 11:00:09;;;;;;;5.95;5.65;;;;;;;20.55;46.45;99248.47;6151206;23;20025;-68
2023/07/25 11:02:42;;;;;;;5.88;5.57;;;;;;;21.70;47.75;99495.56;6147292;23;20016;-68
2023/07/25 11:05:15;;;;;;;6.10;5.70;;;;;;;21.91;47.84;99525.06;6172522;23;20020;-68
2023/07/25 11:07:52;;;;;;;6.18;5.72;;;;;;;22.20;48.32;99552.81;6159477;23;20024;-68
2023/07/25 11:10:27;;;;;;;6.68;6.35;;;;;;;22.42;48.28;99609.09;6141122;23;20032;-69
2023/07/25 11:13:00;;;;;;;5.97;5.68;;;;;;;21.91;48.81;99538.41;6168246;23;20020;-68
2023/07/25 11:15:27;;;;;;;6.97;6.00;;;;;;;21.30;50.47;99613.13;6146490;23;20048;-68
2023/07/25 11:18:15;;;;;;;5.78;5.40;;;;;;;21.04;48.05;99413.38;6165106;23;20080;-68
2023/07/25 11:20:41;;;;;;;6.00;5.70;;;;;;;20.70;48.85;99441.28;6149415;23;20042;-68
2023/07/25 11:23:08;;;;;;;6.38;5.90;;;;;;;20.69;44.66;99231.69;6165452;23;20158;-68
2023/07/25 11:25:34;;;;;;;6.13;5.70;;;;;;;21.30;46.16;99434.31;6139118;23;20021;-68